Airfield :
LOGIN :

Register | Disclaimer

   EN    FR    IT 

 










Legend :    VFR   Marginal VFR   IFR   Intensive IFR   Very Intensive IFR
Visi :
Ceiling :
>= 8 km
>= 3000ft
5 to 8 km
1000 to 3000 ft
1500m to 5 km
500 to 1000 ft
800 to 1500m
200 to 500 ft
< 800m
< 200 ft
Symbols :   Thunderstorms  Fog  Heavy snow  Heavy precipitations  Wind > 20 kt
SIGMETs :     Misc.  Thunderstorms  Icing  Turbulence  Mountain Waves  Volcanic Ashes







- Airport Elevation : 52 ft
- IATA code : RNN


EKRN - Bornholm Ronne

CURRENT METAR :
  • 190850Z AUTO 07011KT 9999NDV -SHRA BKN024/// 06/03 Q1030

EXPIRED METARs :
  • 190820Z AUTO 07012KT 9999NDV -SHRA BKN022/// 05/03 Q1030
  • 190750Z AUTO 07010KT 9999NDV -SHRA BKN025/// BKN062/// 05/03 Q1029 RESHRA
  • 190720Z AUTO 07011KT 9999NDV SHRA BKN020/// BKN062/// 05/03 Q1029
  • 190650Z AUTO 06014G25KT 7000NDV SHRA BKN019/// 05/03 Q1029
  • 190620Z AUTO 07011KT 9999NDV -SHRA BKN024/// 05/02 Q1029
  • 190550Z AUTO 07013KT 9999NDV -SHUP FEW027/// BKN059/// 06/02 Q1029

TAF TAF EKRN
Valid from the 19 at 09:00 until the 19 at 18:00 UTC


190808Z 1909/1918 06015KT 9999 SCT020
TEMPO 1909/1918 08020G30KT -SHRA BKN012TCU
No reported NOTAMs for that airfield.



MET'MAP, your aeronautical weather chart ! - Copyright ORBIFLY December 2007 - Disclaimer

ORBIFLY MET'MAP TEAM :

Programming & Development : Alexandra Zaïnal
Concept & Development : Baudouin d'Aumeries
Co-Development & Prog : Marc-Olivier Méhu
Technical & hardware support : Manuel Goepfert

Contact : metmap@orbifly.com




SOURCES & CREDITS :

   NOAA